Portada
METAR-TAF:

METAR-TAF

Aeropuertos :

Zamperini Field

Torrance, California, Estados Unidos

latitud: 33-48N, longitud: 118-20W, altitud: 31 m

Observación

El informe se hizo hace 6 horas y 2 minutos, a las 02:47 UTC
Viento 3 kt del suroeste
Temperatura 14°C
Humedad 72%
Presión 1012 hPa
Visibilidad: 16.1 km
Cielo despejado

METAR: KTOA 040247Z 22003KT 10SM SKC 14/09 A2989

Hora: 01:49 (08:49 UTC)


TAF: falta

Observaciones y pronósticos meteorológicos de más de 4000 aeropuertos (mensajes METAR y TAF).

Los puntos amarillos y rojos representan las estaciones disponibles.

Ponga el ratón en el punto deseado para ver el nombre de la estación.

Haga clic para ver las observaciones y los pronósticos meteorológicos.

Para cambiar el mapa : haga clic en los botones verdes con una cruz de color negro para hacer un zoom, en el botón verde con un guión para alejar o en las flechas verdes para mapas adyacentes.


METAR-TAF: